createdAt,value
2019-01-02T00:01:50.417Z,4
2019-01-02T00:11:59.349Z,4
2019-01-02T00:22:06.315Z,5
2019-01-02T00:32:14.832Z,4
2019-01-02T00:42:22.939Z,6
2019-01-02T00:52:30.063Z,4
2019-01-02T01:02:34.944Z,4
2019-01-02T01:12:43.444Z,3
2019-01-02T01:22:52.876Z,7
2019-01-02T01:33:02.097Z,7
2019-01-02T01:43:09.085Z,7
2019-01-02T01:53:16.222Z,5
2019-01-02T02:03:28.929Z,5
2019-01-02T02:13:31.989Z,6
2019-01-02T02:23:42.782Z,6
2019-01-02T02:33:50.187Z,5
2019-01-02T02:43:59.167Z,7
2019-01-02T02:54:10.320Z,5
2019-01-02T02:54:57.165Z,4
2019-01-02T03:05:06.037Z,6
2019-01-02T03:15:11.968Z,7
2019-01-02T03:25:25.025Z,6
2019-01-02T03:35:30.107Z,5
2019-01-02T03:45:37.041Z,6
2019-01-02T03:55:45.131Z,5
2019-01-02T04:05:51.079Z,6
2019-01-02T04:15:58.984Z,5
2019-01-02T04:26:05.287Z,9
2019-01-02T04:36:13.737Z,7
2019-01-02T04:46:21.106Z,6
2019-01-02T04:56:28.098Z,6
2019-01-02T05:06:33.240Z,6
2019-01-02T05:16:41.330Z,6
2019-01-02T05:26:49.077Z,10
2019-01-02T05:36:56.262Z,7
2019-01-02T05:47:03.398Z,7
2019-01-02T05:57:11.889Z,6
2019-01-02T06:07:20.059Z,6
2019-01-02T06:17:27.790Z,9
2019-01-02T06:27:35.310Z,8
2019-01-02T06:37:43.247Z,7
2019-01-02T06:47:51.153Z,7
2019-01-02T06:57:56.804Z,7
2019-01-02T07:08:04.864Z,6
2019-01-02T07:18:13.201Z,9
2019-01-02T07:28:22.592Z,9
2019-01-02T07:38:28.160Z,7
2019-01-02T07:48:36.763Z,8
2019-01-02T07:58:43.766Z,7
2019-01-02T08:08:50.207Z,6
2019-01-02T08:18:57.494Z,6
2019-01-02T08:29:06.481Z,7
2019-01-02T08:39:12.939Z,9
2019-01-02T08:49:19.123Z,6
2019-01-02T08:59:25.604Z,9
2019-01-02T09:08:10.707Z,9
2019-01-02T09:18:15.021Z,13
2019-01-02T09:26:47.770Z,8
2019-01-02T09:36:54.093Z,8
2019-01-02T09:47:01.796Z,7
2019-01-02T09:52:43.381Z,9
2019-01-02T10:02:48.973Z,10
2019-01-02T10:12:55.666Z,11
2019-01-02T10:24:00.644Z,9
2019-01-02T10:35:09.376Z,12
2019-01-02T10:45:15.946Z,10
2019-01-02T10:46:28.515Z,15
2019-01-02T10:56:36.928Z,10
2019-01-02T11:06:44.063Z,9
2019-01-02T11:16:53.618Z,8
2019-01-02T11:23:27.234Z,8
2019-01-02T11:33:29.818Z,9
2019-01-02T11:43:36.967Z,10
2019-01-02T11:51:55.554Z,9
2019-01-02T12:03:28.241Z,10
2019-01-02T12:08:46.932Z,11
2019-01-02T12:18:49.777Z,10
2019-01-02T12:28:29.099Z,8
2019-01-02T12:38:32.073Z,9
2019-01-02T12:48:40.869Z,9
2019-01-02T12:53:59.392Z,8
2019-01-02T13:04:06.857Z,11
2019-01-02T13:08:25.705Z,9
2019-01-02T13:18:32.187Z,15
2019-01-02T13:28:43.855Z,9
2019-01-02T13:38:51.092Z,9
2019-01-02T13:44:23.168Z,9
2019-01-02T13:51:04.257Z,10
2019-01-02T13:52:17.770Z,8
2019-01-02T13:57:00.515Z,10
2019-01-02T14:07:03.636Z,8
2019-01-02T14:17:11.998Z,7
2019-01-02T14:23:33.470Z,8
2019-01-02T14:28:01.584Z,7
2019-01-02T14:29:16.943Z,9
2019-01-02T14:39:17.297Z,10
2019-01-02T14:49:25.376Z,10
2019-01-02T14:59:33.184Z,10
2019-01-02T15:09:46.244Z,8
2019-01-02T15:19:50.064Z,11
2019-01-02T15:26:00.936Z,11
2019-01-02T15:27:09.140Z,10
2019-01-02T15:37:14.018Z,9
2019-01-02T15:47:22.108Z,9
2019-01-02T15:57:33.709Z,10
2019-01-02T16:00:03.663Z,11
2019-01-02T16:10:05.216Z,11
2019-01-02T16:13:21.544Z,10
2019-01-02T16:23:25.600Z,11
2019-01-02T16:33:32.937Z,13
2019-01-02T16:43:38.541Z,11
2019-01-02T16:53:45.714Z,9
2019-01-02T16:55:05.132Z,7
2019-01-02T17:05:06.486Z,8
2019-01-02T17:07:36.911Z,8
2019-01-02T17:17:39.574Z,9
2019-01-02T17:27:47.890Z,9
2019-01-02T17:37:55.904Z,8
2019-01-02T17:48:03.872Z,9
2019-01-02T17:58:11.948Z,9
2019-01-02T18:08:20.375Z,10
2019-01-02T18:18:28.222Z,10
2019-01-02T18:28:42.497Z,8
2019-01-02T18:29:57.278Z,8
2019-01-02T18:39:59.533Z,10
2019-01-02T18:50:06.949Z,11
2019-01-02T18:57:28.136Z,12
2019-01-02T19:07:35.165Z,12
2019-01-02T19:17:43.167Z,9
2019-01-02T19:27:50.229Z,15
2019-01-02T19:37:58.792Z,8
2019-01-02T19:48:06.301Z,9
2019-01-02T19:58:13.952Z,7
2019-01-02T20:08:20.938Z,8
2019-01-02T20:18:29.279Z,8
2019-01-02T20:28:34.960Z,8
2019-01-02T20:38:42.557Z,13
2019-01-02T20:48:51.711Z,14
2019-01-02T20:59:01.004Z,12
2019-01-02T21:09:08.152Z,18
2019-01-02T21:19:13.352Z,17
2019-01-02T21:29:21.474Z,16
2019-01-02T21:39:28.286Z,14
2019-01-02T21:49:37.933Z,13
2019-01-02T21:59:45.032Z,22
2019-01-02T22:09:51.840Z,15
2019-01-02T22:19:57.670Z,21
2019-01-02T22:30:04.641Z,24
2019-01-02T22:40:11.048Z,14
2019-01-02T22:50:17.624Z,14
2019-01-02T23:00:26.848Z,10
2019-01-02T23:10:34.408Z,14
2019-01-02T23:20:42.163Z,15
2019-01-02T23:30:50.708Z,15
2019-01-02T23:40:56.636Z,12
2019-01-02T23:51:05.647Z,9
